Time;durP1;ratioP1;P1;durP2;ratioP2;P2;SDS_P1;SDS_P2;PMS_P1;PMS_P2;Temp;Humidity;BMP_temperature;BMP_pressure;BME280_temperature;BME280_humidity;BME280_pressure;Samples;Min_cycle;Max_cycle;Signal;HPM_P1;HPM_P2
2022/01/28 00:00:50;;;;;;;;;;;-3.40;93.80;;;;;;5024608;28;20488;-79
2022/01/28 00:03:17;;;;;;;;;;;-3.40;93.80;;;;;;5031632;28;19979;-78
2022/01/28 00:05:44;;;;;;;;;;;-3.50;93.70;;;;;;5024883;28;19925;-78
2022/01/28 00:08:10;;;;;;;;;;;-3.50;93.70;;;;;;5024616;28;19925;-77
2022/01/28 00:10:39;;;;;;;;;;;-3.50;93.60;;;;;;5054866;28;19941;-77
2022/01/28 00:13:22;;;;;;;;;;;-3.50;93.40;;;;;;5030895;28;19925;-79
2022/01/28 00:37:47;;;;;;;;;;;-3.70;93.60;;;;;;5031296;28;20575;-78
2022/01/28 00:40:10;;;;;;;;;;;-3.70;93.50;;;;;;5027494;28;19929;-79
2022/01/28 00:42:37;;;;;;;;;;;-3.70;93.60;;;;;;5020872;28;20342;-79
2022/01/28 00:45:04;;;;;;;;;;;-3.70;93.50;;;;;;5046025;28;19975;-79
2022/01/28 00:47:31;;;;;;;;;;;-3.70;93.40;;;;;;5031575;28;19929;-78
2022/01/28 00:49:58;;;;;;;;;;;-3.70;93.40;;;;;;5033708;28;19925;-77
2022/01/28 00:52:26;;;;;;;;;;;-3.70;93.50;;;;;;5034392;28;19936;-77
2022/01/28 00:54:53;;;;;;;;;;;-3.60;93.40;;;;;;5025341;28;19925;-78
2022/01/28 00:57:20;;;;;;;;;;;-3.60;93.40;;;;;;5048582;28;19930;-77
2022/01/28 00:59:47;;;;;;;;;;;-3.60;93.50;;;;;;5034576;28;19979;-79
2022/01/28 01:02:14;;;;;;;;;;;-3.60;93.50;;;;;;5034539;28;19925;-78
2022/01/28 01:04:41;;;;;;;;;;;-3.60;93.50;;;;;;5012374;28;19929;-77
2022/01/28 01:07:08;;;;;;;;;;;-3.60;93.50;;;;;;5013706;28;19949;-79
2022/01/28 01:09:35;;;;;;;;;;;-3.60;93.40;;;;;;4997502;28;20382;-79
2022/01/28 01:12:02;;;;;;;;;;;-3.60;93.50;;;;;;5013587;28;19929;-79
2022/01/28 01:14:29;;;;;;;;;;;-3.60;93.40;;;;;;5012539;28;19929;-77
2022/01/28 01:19:25;;;;;;;;;;;-3.50;93.20;;;;;;5014476;28;19934;-78
2022/01/28 01:21:57;;;;;;;;;;;-3.60;93.10;;;;;;4994395;28;19933;-77
2022/01/28 01:24:26;;;;;;;;;;;-3.60;93.20;;;;;;5010524;28;19929;-77
2022/01/28 01:26:53;;;;;;;;;;;-3.50;93.10;;;;;;4998160;28;19926;-77
2022/01/28 01:29:22;;;;;;;;;;;-3.60;92.80;;;;;;4999271;28;19992;-78
2022/01/28 01:32:00;;;;;;;;;;;-3.60;92.70;;;;;;5011433;28;20285;-77
2022/01/28 01:34:27;;;;;;;;;;;-3.60;92.70;;;;;;5002849;28;19995;-78
2022/01/28 01:36:54;;;;;;;;;;;-3.70;92.80;;;;;;5016365;28;19988;-78
2022/01/28 01:39:27;;;;;;;;;;;-3.70;92.70;;;;;;5005801;28;20465;-77
2022/01/28 01:41:59;;;;;;;;;;;-3.70;92.90;;;;;;5048561;28;19926;-77
2022/01/28 01:52:02;;;;;;;;;;;-3.70;92.90;;;;;;5013936;28;19930;-78
2022/01/28 01:52:51;;;;;;;;;;;-3.70;92.70;;;;;;5014702;28;19926;-78
2022/01/28 01:55:18;;;;;;;;;;;-3.70;92.70;;;;;;5046758;28;20309;-77
2022/01/28 01:57:45;;;;;;;;;;;-3.70;92.50;;;;;;5012262;28;19937;-77
2022/01/28 02:00:13;;;;;;;;;;;-3.70;92.30;;;;;;5015731;28;19938;-77
2022/01/28 02:02:40;;;;;;;;;;;-3.70;92.40;;;;;;5026629;28;19929;-77
2022/01/28 02:05:07;;;;;;;;;;;-3.80;92.30;;;;;;5028000;28;20023;-77
2022/01/28 02:07:34;;;;;;;;;;;-3.80;92.30;;;;;;5029563;28;19952;-79
2022/01/28 02:10:01;;;;;;;;;;;-3.80;92.50;;;;;;5024185;28;20398;-78
2022/01/28 02:12:27;;;;;;;;;;;-3.80;92.50;;;;;;5045762;28;19933;-79
2022/01/28 02:14:54;;;;;;;;;;;-3.80;92.40;;;;;;5040473;28;19934;-77
2022/01/28 02:17:21;;;;;;;;;;;-3.80;92.20;;;;;;5014694;28;19929;-77
2022/01/28 02:19:48;;;;;;;;;;;-3.80;92.10;;;;;;5032147;28;19929;-78
2022/01/28 02:22:15;;;;;;;;;;;-3.80;92.10;;;;;;5029527;28;19926;-77
2022/01/28 02:24:45;;;;;;;;;;;-3.80;92.10;;;;;;5018461;28;20455;-77
2022/01/28 02:27:13;;;;;;;;;;;-3.80;92.10;;;;;;5023593;28;19925;-79
2022/01/28 02:29:43;;;;;;;;;;;-3.80;91.90;;;;;;5014473;28;19930;-78
2022/01/28 02:32:10;;;;;;;;;;;-3.90;91.80;;;;;;5054777;28;19925;-77
2022/01/28 02:34:39;;;;;;;;;;;-3.90;91.90;;;;;;5017608;28;19929;-78
2022/01/28 02:37:06;;;;;;;;;;;-3.90;91.80;;;;;;5021367;28;19975;-78
2022/01/28 02:39:33;;;;;;;;;;;-4.00;92.10;;;;;;5018062;28;20345;-79
2022/01/28 02:42:14;;;;;;;;;;;-4.00;92.00;;;;;;5012606;28;19929;-78
2022/01/28 02:47:12;;;;;;;;;;;-4.00;92.30;;;;;;4994035;28;19933;-79
2022/01/28 02:49:39;;;;;;;;;;;-4.10;92.10;;;;;;4992415;28;20045;-78
2022/01/28 02:52:08;;;;;;;;;;;-4.10;92.30;;;;;;5030469;28;19933;-79
2022/01/28 02:54:44;;;;;;;;;;;-4.10;92.10;;;;;;5036469;28;19925;-78
2022/01/28 02:57:11;;;;;;;;;;;-4.10;92.30;;;;;;5033225;28;20412;-77
2022/01/28 02:59:38;;;;;;;;;;;-4.10;92.20;;;;;;5020117;28;19933;-77
2022/01/28 03:02:05;;;;;;;;;;;-4.10;92.10;;;;;;5011246;28;20456;-80
2022/01/28 03:06:59;;;;;;;;;;;-4.20;91.90;;;;;;5013019;28;20455;-77
2022/01/28 03:09:35;;;;;;;;;;;-4.10;92.10;;;;;;4998996;28;20208;-77
2022/01/28 03:12:18;;;;;;;;;;;-4.20;92.00;;;;;;5009192;28;20038;-77
2022/01/28 03:20:27;;;;;;;;;;;-4.20;91.90;;;;;;4992409;28;19933;-78
2022/01/28 03:22:47;;;;;;;;;;;-4.20;92.00;;;;;;5017810;28;19925;-79
2022/01/28 03:25:14;;;;;;;;;;;-4.20;91.90;;;;;;5045576;28;20439;-77
2022/01/28 03:30:08;;;;;;;;;;;-4.20;91.90;;;;;;5051516;28;20330;-77
2022/01/28 03:32:34;;;;;;;;;;;-4.20;91.90;;;;;;5040371;28;20385;-77
2022/01/28 03:35:21;;;;;;;;;;;-4.20;91.90;;;;;;5060765;28;19964;-77
2022/01/28 03:37:53;;;;;;;;;;;-4.20;91.90;;;;;;5018072;28;19975;-77
2022/01/28 03:40:20;;;;;;;;;;;-4.20;92.10;;;;;;5030203;28;19975;-78
2022/01/28 03:42:47;;;;;;;;;;;-4.20;91.90;;;;;;5047596;28;19990;-79
2022/01/28 03:45:14;;;;;;;;;;;-4.20;91.80;;;;;;5034190;28;20336;-78
2022/01/28 03:47:41;;;;;;;;;;;-4.20;91.60;;;;;;5052395;28;20347;-78
2022/01/28 03:50:07;;;;;;;;;;;-4.20;91.50;;;;;;5018605;28;20401;-77
2022/01/28 03:52:34;;;;;;;;;;;-4.20;91.50;;;;;;5044037;28;19979;-77
2022/01/28 03:55:02;;;;;;;;;;;-4.20;91.50;;;;;;5028488;28;19924;-78
2022/01/28 03:57:28;;;;;;;;;;;-4.30;91.90;;;;;;5051450;28;19932;-78
2022/01/28 04:00:00;;;;;;;;;;;-4.20;91.70;;;;;;5051086;28;20014;-79
2022/01/28 04:02:31;;;;;;;;;;;-4.30;91.80;;;;;;5034227;28;19929;-77
2022/01/28 04:12:55;;;;;;;;;;;-4.40;91.70;;;;;;5043693;28;19932;-77
2022/01/28 04:15:50;;;;;;;;;;;-4.40;91.30;;;;;;5027770;28;19942;-78
2022/01/28 04:18:17;;;;;;;;;;;-4.40;91.00;;;;;;5030704;28;20023;-77
2022/01/28 04:20:44;;;;;;;;;;;-4.50;91.00;;;;;;5014109;28;19925;-78
2022/01/28 04:23:11;;;;;;;;;;;-4.50;91.60;;;;;;5017869;28;19926;-78
2022/01/28 04:25:38;;;;;;;;;;;-4.50;91.50;;;;;;5004430;28;19934;-78
2022/01/28 04:28:05;;;;;;;;;;;-4.40;91.60;;;;;;5007237;28;19925;-81
2022/01/28 04:30:31;;;;;;;;;;;-4.40;91.70;;;;;;4994368;28;19977;-78
2022/01/28 04:32:58;;;;;;;;;;;-4.40;92.20;;;;;;5010740;28;19929;-78
2022/01/28 04:35:25;;;;;;;;;;;-4.40;92.10;;;;;;5022510;28;19979;-78
2022/01/28 04:40:28;;;;;;;;;;;-4.30;92.10;;;;;;5030723;28;19983;-77
2022/01/28 04:45:48;;;;;;;;;;;-4.60;90.90;;;;;;5014359;28;20570;-78
2022/01/28 04:49:04;;;;;;;;;;;-4.60;91.10;;;;;;5031493;28;20409;-77
2022/01/28 04:54:09;;;;;;;;;;;-4.60;91.50;;;;;;5011411;28;20020;-79
2022/01/28 04:57:04;;;;;;;;;;;-4.70;91.20;;;;;;5010386;28;19926;-78
2022/01/28 04:59:56;;;;;;;;;;;-4.80;91.30;;;;;;5022668;28;19926;-77
2022/01/28 05:13:01;;;;;;;;;;;-4.80;91.40;;;;;;5027308;28;19957;-79
2022/01/28 05:24:06;;;;;;;;;;;-4.60;92.50;;;;;;5008559;28;19976;-78
2022/01/28 05:28:42;;;;;;;;;;;-4.70;91.70;;;;;;5011659;28;19929;-78
2022/01/28 05:31:09;;;;;;;;;;;-4.70;91.80;;;;;;5017974;28;19976;-77
2022/01/28 05:33:36;;;;;;;;;;;-4.70;91.90;;;;;;5011439;28;19925;-79
2022/01/28 05:36:03;;;;;;;;;;;-4.70;91.80;;;;;;5006305;28;19929;-77
2022/01/28 05:38:30;;;;;;;;;;;-4.70;92.10;;;;;;5020053;28;19937;-79
2022/01/28 05:40:57;;;;;;;;;;;-4.70;92.00;;;;;;5021382;28;19928;-78
2022/01/28 05:43:24;;;;;;;;;;;-4.60;92.20;;;;;;5003278;28;20290;-78
2022/01/28 05:45:51;;;;;;;;;;;-4.60;92.20;;;;;;5027534;28;19925;-75
2022/01/28 05:48:19;;;;;;;;;;;-4.50;92.20;;;;;;5014173;28;19980;-79
2022/01/28 05:50:46;;;;;;;;;;;-4.50;92.40;;;;;;5029336;28;19925;-78
2022/01/28 05:53:13;;;;;;;;;;;-4.60;91.90;;;;;;5033985;28;19925;-78
2022/01/28 05:55:40;;;;;;;;;;;-4.60;92.10;;;;;;5003067;28;19988;-80
2022/01/28 05:58:07;;;;;;;;;;;-4.60;92.20;;;;;;5024739;28;20452;-78
2022/01/28 06:00:34;;;;;;;;;;;-4.60;92.10;;;;;;5031752;28;19987;-77
2022/01/28 06:03:01;;;;;;;;;;;-4.60;92.00;;;;;;5036504;28;19925;-78
2022/01/28 06:05:30;;;;;;;;;;;-4.60;91.90;;;;;;5035711;28;20047;-78
2022/01/28 06:07:58;;;;;;;;;;;-4.60;92.00;;;;;;5036233;28;19931;-77
2022/01/28 06:10:24;;;;;;;;;;;-4.60;91.90;;;;;;5039011;28;19952;-78
2022/01/28 06:12:51;;;;;;;;;;;-4.60;92.10;;;;;;5061637;28;19986;-77
2022/01/28 06:15:18;;;;;;;;;;;-4.60;92.20;;;;;;5028302;28;19929;-79
2022/01/28 06:17:45;;;;;;;;;;;-4.60;92.20;;;;;;5030012;28;19979;-77
2022/01/28 06:20:12;;;;;;;;;;;-4.60;92.10;;;;;;5034602;28;19937;-78
2022/01/28 06:22:40;;;;;;;;;;;-4.60;92.20;;;;;;5030517;28;19928;-78
2022/01/28 06:25:08;;;;;;;;;;;-4.60;91.90;;;;;;5029055;28;20385;-79
2022/01/28 06:27:35;;;;;;;;;;;-4.60;91.70;;;;;;5058826;28;20384;-78
2022/01/28 06:30:04;;;;;;;;;;;-4.90;91.40;;;;;;5018920;28;20404;-79
2022/01/28 06:32:31;;;;;;;;;;;-4.80;92.60;;;;;;5035077;28;19936;-78
2022/01/28 06:35:07;;;;;;;;;;;-4.80;92.80;;;;;;5042780;28;20477;-77
2022/01/28 06:37:37;;;;;;;;;;;-4.80;92.60;;;;;;5027217;28;19925;-78
2022/01/28 06:40:08;;;;;;;;;;;-4.80;92.50;;;;;;5037499;28;20282;-77
2022/01/28 06:42:35;;;;;;;;;;;-4.80;92.50;;;;;;5045675;28;20394;-79
2022/01/28 06:45:03;;;;;;;;;;;-4.80;92.20;;;;;;5026760;28;19925;-78
2022/01/28 06:47:30;;;;;;;;;;;-4.80;91.90;;;;;;5025269;28;20466;-78
2022/01/28 06:49:57;;;;;;;;;;;-4.80;91.80;;;;;;5018583;28;19929;-77
2022/01/28 06:52:24;;;;;;;;;;;-4.90;91.90;;;;;;5046264;28;20381;-78
2022/01/28 06:54:51;;;;;;;;;;;-4.90;91.90;;;;;;5047660;28;20343;-77
2022/01/28 06:57:18;;;;;;;;;;;-4.90;91.80;;;;;;5051148;28;20376;-79
2022/01/28 06:59:45;;;;;;;;;;;-4.90;91.60;;;;;;5048863;28;19929;-78
2022/01/28 07:02:12;;;;;;;;;;;-4.90;92.10;;;;;;5034799;28;19925;-76
2022/01/28 07:04:39;;;;;;;;;;;-4.90;92.10;;;;;;5037952;28;20388;-79
2022/01/28 07:07:06;;;;;;;;;;;-4.90;92.00;;;;;;5033575;28;19932;-76
2022/01/28 07:09:35;;;;;;;;;;;-4.80;92.00;;;;;;5051157;28;20488;-76
2022/01/28 07:12:02;;;;;;;;;;;-4.80;91.80;;;;;;5033298;28;20403;-76
2022/01/28 07:14:29;;;;;;;;;;;-4.80;92.20;;;;;;5028405;28;19933;-76
2022/01/28 07:16:56;;;;;;;;;;;-4.80;92.10;;;;;;5011827;28;19929;-76
2022/01/28 07:19:23;;;;;;;;;;;-4.70;92.30;;;;;;5013519;28;20332;-77
2022/01/28 07:21:49;;;;;;;;;;;-4.70;92.40;;;;;;5028224;28;20397;-77
2022/01/28 07:24:16;;;;;;;;;;;-4.70;92.40;;;;;;5031138;28;19924;-75
2022/01/28 07:26:43;;;;;;;;;;;-4.50;92.70;;;;;;5029947;28;20007;-78
2022/01/28 07:29:11;;;;;;;;;;;-4.50;92.80;;;;;;5028339;28;20382;-79
2022/01/28 07:31:38;;;;;;;;;;;-4.40;92.80;;;;;;5025612;28;20336;-76
2022/01/28 07:34:06;;;;;;;;;;;-4.40;92.50;;;;;;5014032;28;19975;-76
2022/01/28 07:36:33;;;;;;;;;;;-4.40;91.90;;;;;;5024644;28;19955;-76
2022/01/28 07:39:00;;;;;;;;;;;-4.50;91.70;;;;;;5024797;28;19925;-79
2022/01/28 07:41:27;;;;;;;;;;;-4.50;91.80;;;;;;5010646;28;19933;-79
2022/01/28 07:43:54;;;;;;;;;;;-4.50;92.00;;;;;;5014148;28;19979;-79
2022/01/28 07:46:21;;;;;;;;;;;-4.40;92.20;;;;;;5010602;28;20396;-77
2022/01/28 07:48:48;;;;;;;;;;;-4.40;92.40;;;;;;5020317;28;20448;-77
2022/01/28 07:51:14;;;;;;;;;;;-4.30;92.60;;;;;;5028704;28;19929;-77
2022/01/28 07:53:41;;;;;;;;;;;-4.00;92.90;;;;;;5027214;28;19929;-77
2022/01/28 07:56:08;;;;;;;;;;;-3.80;92.80;;;;;;5028339;28;20024;-77
2022/01/28 07:58:35;;;;;;;;;;;-3.50;92.60;;;;;;5025764;28;19975;-79
2022/01/28 08:01:02;;;;;;;;;;;-3.20;92.20;;;;;;5008452;28;19971;-79
2022/01/28 08:03:29;;;;;;;;;;;-2.90;91.90;;;;;;5031590;28;19933;-77
2022/01/28 08:05:56;;;;;;;;;;;-2.70;91.70;;;;;;5035640;28;20385;-77
2022/01/28 08:08:22;;;;;;;;;;;-2.40;91.40;;;;;;5032708;28;19928;-79
2022/01/28 08:10:49;;;;;;;;;;;-2.20;91.10;;;;;;5053057;28;20468;-76
2022/01/28 08:13:17;;;;;;;;;;;-2.00;90.80;;;;;;5052413;28;19986;-78
2022/01/28 08:15:43;;;;;;;;;;;-1.80;90.70;;;;;;5005755;28;19941;-76
2022/01/28 08:18:10;;;;;;;;;;;-1.60;90.60;;;;;;5015431;28;19937;-77
2022/01/28 08:20:38;;;;;;;;;;;-1.40;90.60;;;;;;5030523;28;19928;-75
2022/01/28 08:23:05;;;;;;;;;;;-1.20;90.70;;;;;;5032637;28;19925;-76
2022/01/28 08:25:34;;;;;;;;;;;-0.90;91.00;;;;;;5044540;28;20384;-77
2022/01/28 08:28:02;;;;;;;;;;;-0.60;91.10;;;;;;5015185;28;19987;-79
2022/01/28 08:30:29;;;;;;;;;;;-0.30;91.10;;;;;;5020252;28;19933;-78
2022/01/28 08:32:56;;;;;;;;;;;0.00;90.80;;;;;;5033611;28;20323;-78
2022/01/28 08:35:32;;;;;;;;;;;0.30;90.50;;;;;;5042982;28;19937;-79
2022/01/28 08:38:24;;;;;;;;;;;0.50;90.00;;;;;;5015698;28;19943;-78
2022/01/28 08:40:52;;;;;;;;;;;0.70;89.80;;;;;;5022468;28;19983;-77
2022/01/28 08:43:20;;;;;;;;;;;0.80;88.20;;;;;;5032109;28;20297;-76
2022/01/28 08:45:47;;;;;;;;;;;0.80;87.30;;;;;;5037244;28;28460;-80
2022/01/28 08:48:14;;;;;;;;;;;0.90;87.90;;;;;;5042303;28;19929;-76
2022/01/28 08:50:41;;;;;;;;;;;1.00;87.60;;;;;;5028946;28;19932;-75
2022/01/28 08:53:09;;;;;;;;;;;1.10;86.60;;;;;;5045081;28;19925;-76
2022/01/28 08:55:37;;;;;;;;;;;1.20;86.70;;;;;;5032798;28;20453;-78
2022/01/28 08:58:08;;;;;;;;;;;1.30;86.70;;;;;;5049648;28;20281;-76
2022/01/28 09:00:35;;;;;;;;;;;1.50;87.30;;;;;;5032132;28;19987;-78
2022/01/28 09:03:02;;;;;;;;;;;1.70;86.50;;;;;;5033697;28;20012;-78
2022/01/28 09:05:29;;;;;;;;;;;1.90;87.10;;;;;;5029352;28;20411;-76
2022/01/28 09:07:56;;;;;;;;;;;2.00;86.60;;;;;;5046726;28;19978;-76
2022/01/28 09:10:29;;;;;;;;;;;2.20;87.80;;;;;;5036682;28;19956;-78
2022/01/28 09:15:33;;;;;;;;;;;2.60;87.30;;;;;;5046422;28;19975;-76
2022/01/28 09:18:00;;;;;;;;;;;2.80;87.30;;;;;;5031827;28;19929;-79
2022/01/28 09:20:28;;;;;;;;;;;2.90;87.40;;;;;;5037343;28;19928;-75
2022/01/28 09:22:55;;;;;;;;;;;3.00;86.80;;;;;;5023928;28;20477;-75
2022/01/28 09:25:22;;;;;;;;;;;3.10;86.10;;;;;;5026288;28;19929;-78
2022/01/28 09:27:49;;;;;;;;;;;3.30;86.80;;;;;;5048708;28;20040;-75
2022/01/28 09:30:16;;;;;;;;;;;3.40;86.20;;;;;;5030732;28;19933;-76
2022/01/28 09:32:43;;;;;;;;;;;3.60;85.30;;;;;;5061716;28;19961;-75
2022/01/28 09:35:10;;;;;;;;;;;3.80;85.10;;;;;;5022090;28;20016;-79
2022/01/28 09:37:37;;;;;;;;;;;3.90;84.80;;;;;;5034210;28;19929;-77
2022/01/28 09:40:05;;;;;;;;;;;4.10;83.70;;;;;;5029466;28;20189;-75
2022/01/28 09:42:35;;;;;;;;;;;4.10;83.40;;;;;;5049199;28;19925;-75
2022/01/28 09:45:04;;;;;;;;;;;4.20;81.20;;;;;;5017706;28;19986;-79
2022/01/28 09:47:31;;;;;;;;;;;4.40;81.00;;;;;;5028990;28;19932;-77
2022/01/28 09:49:58;;;;;;;;;;;4.50;80.50;;;;;;5035538;28;19933;-79
2022/01/28 09:52:25;;;;;;;;;;;4.70;79.80;;;;;;5060588;28;19925;-76
2022/01/28 09:54:51;;;;;;;;;;;4.80;80.00;;;;;;5029929;28;19925;-79
2022/01/28 09:57:19;;;;;;;;;;;5.00;79.20;;;;;;5032076;28;19932;-79
2022/01/28 09:59:46;;;;;;;;;;;5.20;78.10;;;;;;5039883;28;19926;-76
2022/01/28 10:02:13;;;;;;;;;;;5.40;77.20;;;;;;5033692;28;19936;-77
2022/01/28 10:04:41;;;;;;;;;;;5.50;76.90;;;;;;5033142;28;20016;-77
2022/01/28 10:07:12;;;;;;;;;;;5.70;76.50;;;;;;5026217;28;20015;-77
2022/01/28 10:09:55;;;;;;;;;;;5.90;76.30;;;;;;5031721;28;19932;-78
2022/01/28 10:12:31;;;;;;;;;;;6.10;75.80;;;;;;5047257;28;20340;-75
2022/01/28 10:15:04;;;;;;;;;;;6.30;73.70;;;;;;5020919;28;20080;-77
2022/01/28 10:17:50;;;;;;;;;;;6.50;74.30;;;;;;5022992;28;19929;-77
2022/01/28 10:20:17;;;;;;;;;;;6.70;71.30;;;;;;5046996;28;20484;-74
2022/01/28 10:22:51;;;;;;;;;;;6.80;70.50;;;;;;5038812;28;19929;-75
2022/01/28 10:25:23;;;;;;;;;;;6.90;70.80;;;;;;5034768;28;20630;-76
2022/01/28 10:27:57;;;;;;;;;;;7.10;70.20;;;;;;5033640;28;19929;-75
2022/01/28 10:30:24;;;;;;;;;;;7.20;66.20;;;;;;5029536;28;20015;-78
2022/01/28 10:33:09;;;;;;;;;;;7.40;67.00;;;;;;5033471;28;19960;-77
2022/01/28 10:35:37;;;;;;;;;;;7.60;66.30;;;;;;5035104;28;19944;-77
2022/01/28 10:38:07;;;;;;;;;;;7.80;63.80;;;;;;5045758;28;20397;-78
2022/01/28 10:40:34;;;;;;;;;;;8.10;64.20;;;;;;5020585;28;20462;-78
2022/01/28 10:43:01;;;;;;;;;;;8.30;63.40;;;;;;5032225;28;19956;-75
2022/01/28 10:45:32;;;;;;;;;;;8.50;61.00;;;;;;5038166;28;20020;-78
2022/01/28 10:47:59;;;;;;;;;;;8.70;59.90;;;;;;5030068;28;19933;-77
2022/01/28 10:50:28;;;;;;;;;;;9.00;59.50;;;;;;5029510;28;19925;-78
2022/01/28 10:53:15;;;;;;;;;;;9.20;57.90;;;;;;5031463;28;19958;-76
2022/01/28 10:55:45;;;;;;;;;;;9.40;56.50;;;;;;5017647;28;19929;-77
2022/01/28 10:58:17;;;;;;;;;;;9.50;58.30;;;;;;4999841;28;19929;-76
2022/01/28 11:00:45;;;;;;;;;;;9.70;58.10;;;;;;5014326;28;19929;-76
2022/01/28 11:03:13;;;;;;;;;;;9.90;55.70;;;;;;5029899;28;20344;-76
2022/01/28 11:05:41;;;;;;;;;;;10.10;55.70;;;;;;5033363;28;19933;-76
2022/01/28 11:08:08;;;;;;;;;;;10.30;56.70;;;;;;5022811;28;19929;-75
2022/01/28 11:10:36;;;;;;;;;;;10.60;55.30;;;;;;5035063;28;19924;-75
2022/01/28 11:13:03;;;;;;;;;;;10.70;56.20;;;;;;4999911;28;19933;-77
2022/01/28 11:15:30;;;;;;;;;;;10.90;54.70;;;;;;5026660;28;20386;-77
2022/01/28 11:17:59;;;;;;;;;;;11.20;47.80;;;;;;5047541;28;19925;-75
2022/01/28 11:20:29;;;;;;;;;;;11.40;45.60;;;;;;5041950;28;19956;-78
2022/01/28 11:23:02;;;;;;;;;;;11.60;45.30;;;;;;5001934;28;19932;-77
2022/01/28 11:25:47;;;;;;;;;;;11.90;44.60;;;;;;5016688;28;19988;-77
2022/01/28 11:28:14;;;;;;;;;;;12.10;42.80;;;;;;5037376;28;20463;-77
2022/01/28 11:30:48;;;;;;;;;;;12.30;43.20;;;;;;5047202;28;20316;-77
2022/01/28 11:33:15;;;;;;;;;;;12.50;43.20;;;;;;5031364;28;19971;-76
2022/01/28 11:35:52;;;;;;;;;;;12.70;44.10;;;;;;5051230;28;19966;-77
2022/01/28 11:38:25;;;;;;;;;;;12.80;40.90;;;;;;5043864;28;19936;-78
2022/01/28 11:40:53;;;;;;;;;;;12.90;42.30;;;;;;5044836;28;20450;-75
2022/01/28 11:43:27;;;;;;;;;;;13.10;41.10;;;;;;5060320;28;19975;-77
2022/01/28 11:46:04;;;;;;;;;;;13.10;39.50;;;;;;5032964;28;19933;-76
2022/01/28 11:48:50;;;;;;;;;;;13.20;40.10;;;;;;5032742;28;19931;-75
2022/01/28 11:51:17;;;;;;;;;;;13.30;40.00;;;;;;5050320;28;20356;-76
2022/01/28 11:53:59;;;;;;;;;;;13.50;40.30;;;;;;5033826;28;19928;-77
2022/01/28 11:56:26;;;;;;;;;;;13.50;39.30;;;;;;5046827;28;19925;-77
2022/01/28 11:58:56;;;;;;;;;;;13.60;39.40;;;;;;5033311;28;19948;-79
2022/01/28 12:01:24;;;;;;;;;;;13.70;38.00;;;;;;5033452;28;19928;-78
2022/01/28 12:04:10;;;;;;;;;;;13.80;37.40;;;;;;5039141;28;20282;-78
2022/01/28 12:06:38;;;;;;;;;;;13.90;36.90;;;;;;5041462;28;20377;-75
2022/01/28 12:09:05;;;;;;;;;;;14.00;38.20;;;;;;5018375;28;19932;-78
2022/01/28 12:11:45;;;;;;;;;;;14.00;37.90;;;;;;5032536;28;20439;-77
2022/01/28 12:14:17;;;;;;;;;;;14.10;37.50;;;;;;5045585;28;19925;-79
2022/01/28 12:16:48;;;;;;;;;;;14.20;37.50;;;;;;5044201;28;19924;-76
2022/01/28 12:19:15;;;;;;;;;;;14.20;37.30;;;;;;5033949;28;19990;-78
2022/01/28 12:22:01;;;;;;;;;;;14.30;37.30;;;;;;5031882;28;19933;-78
2022/01/28 12:24:32;;;;;;;;;;;14.30;38.90;;;;;;5021602;28;20275;-76
2022/01/28 12:27:03;;;;;;;;;;;14.40;38.60;;;;;;5012851;28;19925;-79
2022/01/28 12:29:34;;;;;;;;;;;14.60;41.30;;;;;;5028139;28;19933;-76
2022/01/28 12:32:03;;;;;;;;;;;14.70;42.00;;;;;;5020047;28;20092;-75
2022/01/28 12:34:30;;;;;;;;;;;14.70;43.10;;;;;;5042808;28;19971;-79
2022/01/28 12:36:59;;;;;;;;;;;14.80;43.10;;;;;;5040789;28;19932;-76
2022/01/28 12:39:35;;;;;;;;;;;14.80;42.40;;;;;;5042291;28;19925;-77
2022/01/28 12:42:22;;;;;;;;;;;14.90;42.10;;;;;;5026300;28;19932;-76
2022/01/28 12:44:51;;;;;;;;;;;15.00;42.20;;;;;;5041817;28;20324;-76
2022/01/28 12:47:18;;;;;;;;;;;15.00;38.60;;;;;;5051460;28;20371;-78
2022/01/28 12:49:52;;;;;;;;;;;15.10;39.90;;;;;;5043255;28;20393;-78
2022/01/28 12:52:19;;;;;;;;;;;15.00;34.80;;;;;;5023602;28;19939;-78
2022/01/28 12:54:47;;;;;;;;;;;15.00;37.10;;;;;;5032897;28;19956;-78
2022/01/28 12:57:18;;;;;;;;;;;15.00;37.30;;;;;;5045956;28;19955;-78
2022/01/28 12:59:46;;;;;;;;;;;15.10;37.90;;;;;;5030002;28;19925;-78
2022/01/28 13:02:13;;;;;;;;;;;15.20;39.40;;;;;;5024105;28;19925;-75
2022/01/28 13:09:56;;;;;;;;;;;14.90;40.90;;;;;;5052833;28;19928;-77
2022/01/28 13:12:27;;;;;;;;;;;14.80;41.00;;;;;;5063904;28;19928;-75
2022/01/28 13:14:54;;;;;;;;;;;14.90;42.30;;;;;;5036124;28;19935;-78
2022/01/28 13:17:23;;;;;;;;;;;15.10;40.90;;;;;;5036833;28;19925;-77
2022/01/28 13:19:53;;;;;;;;;;;15.10;39.90;;;;;;5038227;28;20356;-78
2022/01/28 13:22:22;;;;;;;;;;;15.10;39.30;;;;;;5035890;28;19928;-79
2022/01/28 13:24:51;;;;;;;;;;;15.30;38.50;;;;;;5054925;28;19929;-77
2022/01/28 13:27:19;;;;;;;;;;;15.30;38.70;;;;;;5054624;28;20690;-77
2022/01/28 13:29:50;;;;;;;;;;;15.40;38.70;;;;;;5052827;28;19936;-76
2022/01/28 13:32:25;;;;;;;;;;;15.40;38.80;;;;;;5034737;28;20016;-78
2022/01/28 13:34:52;;;;;;;;;;;15.50;38.50;;;;;;5032191;28;20336;-78
2022/01/28 13:37:38;;;;;;;;;;;15.50;37.70;;;;;;5043077;28;19928;-76
2022/01/28 13:40:17;;;;;;;;;;;15.50;36.60;;;;;;5065395;28;19925;-78
2022/01/28 13:42:56;;;;;;;;;;;15.40;39.00;;;;;;5035389;28;19936;-79
2022/01/28 13:46:05;;;;;;;;;;;15.40;37.30;;;;;;5022666;28;19925;-77
2022/01/28 13:48:32;;;;;;;;;;;15.40;37.70;;;;;;5022305;28;19933;-78
2022/01/28 13:51:16;;;;;;;;;;;15.10;37.50;;;;;;5027482;28;20428;-78
2022/01/28 13:56:37;;;;;;;;;;;15.10;37.20;;;;;;5052215;28;19943;-76
2022/01/28 13:59:11;;;;;;;;;;;15.20;35.00;;;;;;5039442;28;19936;-76
2022/01/28 14:01:42;;;;;;;;;;;15.10;32.60;;;;;;5015257;28;20462;-80
2022/01/28 14:04:18;;;;;;;;;;;15.20;33.90;;;;;;5015896;28;19925;-79
2022/01/28 14:06:45;;;;;;;;;;;15.20;33.20;;;;;;5049262;28;20471;-80
2022/01/28 14:09:18;;;;;;;;;;;15.30;33.90;;;;;;5050838;28;19925;-76
2022/01/28 14:11:48;;;;;;;;;;;15.30;32.80;;;;;;5013534;28;20005;-77
2022/01/28 14:16:52;;;;;;;;;;;15.30;34.80;;;;;;5021258;28;20781;-79
2022/01/28 14:19:19;;;;;;;;;;;15.20;35.40;;;;;;5024767;28;19933;-77
2022/01/28 14:21:46;;;;;;;;;;;15.20;36.00;;;;;;5005838;28;20349;-76
2022/01/28 14:24:14;;;;;;;;;;;15.10;33.10;;;;;;5027826;28;20864;-78
2022/01/28 14:26:43;;;;;;;;;;;15.10;31.70;;;;;;5045751;28;19925;-79
2022/01/28 14:31:38;;;;;;;;;;;15.10;29.90;;;;;;5042101;28;20336;-78
2022/01/28 14:34:06;;;;;;;;;;;15.10;29.70;;;;;;5020882;28;19979;-78
2022/01/28 14:36:40;;;;;;;;;;;15.00;29.70;;;;;;5048282;28;19929;-76
2022/01/28 14:39:08;;;;;;;;;;;15.00;29.90;;;;;;5052585;28;19935;-77
2022/01/28 14:41:35;;;;;;;;;;;15.00;29.50;;;;;;5033823;28;20312;-77
2022/01/28 14:44:03;;;;;;;;;;;15.00;30.60;;;;;;5034946;28;19924;-76
2022/01/28 14:46:31;;;;;;;;;;;15.00;31.20;;;;;;5033837;28;20316;-76
2022/01/28 14:49:00;;;;;;;;;;;14.90;29.50;;;;;;5041270;28;19925;-76
2022/01/28 14:51:28;;;;;;;;;;;14.90;29.10;;;;;;5041505;28;20419;-78
2022/01/28 14:53:55;;;;;;;;;;;14.80;30.00;;;;;;5036060;28;19929;-77
2022/01/28 14:56:22;;;;;;;;;;;14.90;30.20;;;;;;5042434;28;20304;-79
2022/01/28 14:58:49;;;;;;;;;;;14.80;29.20;;;;;;5034977;28;19979;-80
2022/01/28 15:01:16;;;;;;;;;;;14.80;29.50;;;;;;5032187;28;20381;-77
2022/01/28 15:03:44;;;;;;;;;;;14.80;29.50;;;;;;5029936;28;19935;-76
2022/01/28 15:06:13;;;;;;;;;;;14.80;29.40;;;;;;5024771;28;20051;-76
2022/01/28 15:08:42;;;;;;;;;;;14.70;28.90;;;;;;5033580;28;19932;-80
2022/01/28 15:11:14;;;;;;;;;;;14.70;29.20;;;;;;5043341;28;19951;-76
2022/01/28 15:13:45;;;;;;;;;;;14.70;29.10;;;;;;5042492;28;19925;-77
2022/01/28 15:16:12;;;;;;;;;;;14.70;29.80;;;;;;5013646;28;20381;-79
2022/01/28 15:18:39;;;;;;;;;;;14.80;29.90;;;;;;5013427;28;19932;-79
2022/01/28 15:21:06;;;;;;;;;;;14.70;28.70;;;;;;5028246;28;19929;-79
2022/01/28 15:23:33;;;;;;;;;;;14.70;29.20;;;;;;5003689;28;19925;-76
2022/01/28 15:26:00;;;;;;;;;;;14.70;29.50;;;;;;5024890;28;19929;-80
2022/01/28 15:28:36;;;;;;;;;;;14.60;28.80;;;;;;5016861;28;19940;-76
2022/01/28 15:36:35;;;;;;;;;;;14.50;29.50;;;;;;5047245;28;19924;-79
2022/01/28 15:39:02;;;;;;;;;;;14.40;29.70;;;;;;5026473;28;20277;-79
2022/01/28 15:41:32;;;;;;;;;;;14.40;29.70;;;;;;5017740;28;19929;-79
2022/01/28 15:43:59;;;;;;;;;;;14.30;29.90;;;;;;5024988;28;20416;-76
2022/01/28 15:46:27;;;;;;;;;;;14.20;30.00;;;;;;5041978;28;20385;-79
2022/01/28 15:48:55;;;;;;;;;;;14.20;30.60;;;;;;5021686;28;19925;-78
2022/01/28 15:51:22;;;;;;;;;;;14.10;31.10;;;;;;5029887;28;20008;-78
2022/01/28 15:53:49;;;;;;;;;;;14.10;31.20;;;;;;5045383;28;19971;-75
2022/01/28 15:56:18;;;;;;;;;;;14.00;32.30;;;;;;5038611;28;20469;-77
2022/01/28 15:58:45;;;;;;;;;;;14.00;33.50;;;;;;5039471;28;19952;-77
2022/01/28 16:01:12;;;;;;;;;;;13.90;34.20;;;;;;5038935;28;19925;-80
2022/01/28 16:03:39;;;;;;;;;;;13.70;34.80;;;;;;5021522;28;19928;-76
2022/01/28 16:06:12;;;;;;;;;;;13.50;35.80;;;;;;5030449;28;19959;-79
2022/01/28 16:08:39;;;;;;;;;;;13.30;36.70;;;;;;5016520;28;20392;-76
2022/01/28 16:13:56;;;;;;;;;;;12.70;38.70;;;;;;5042939;28;20381;-78
2022/01/28 16:19:08;;;;;;;;;;;12.20;39.70;;;;;;5022542;28;19999;-78